createdAt,value
2024-01-10T00:02:12.802Z,101912.25
2024-01-10T00:04:40.519Z,101921.53
2024-01-10T00:07:08.274Z,101921.56
2024-01-10T00:09:35.659Z,101903.34
2024-01-10T00:12:03.416Z,101904.38
2024-01-10T00:14:30.801Z,101912.91
2024-01-10T00:16:58.742Z,101918.22
2024-01-10T00:19:26.122Z,101908.88
2024-01-10T00:21:53.767Z,101918.03
2024-01-10T00:24:21.049Z,101925.03
2024-01-10T00:26:48.732Z,101905.75
2024-01-10T00:29:16.273Z,101930.63
2024-01-10T00:31:43.918Z,101941.50
2024-01-10T00:34:11.462Z,101946.00
2024-01-10T00:36:39.077Z,101917.84
2024-01-10T00:39:06.610Z,101939.97
2024-01-10T00:41:34.253Z,101938.97
2024-01-10T00:44:01.835Z,101931.47
2024-01-10T00:46:29.681Z,101937.94
2024-01-10T00:48:57.045Z,101913.41
2024-01-10T00:51:24.720Z,101921.88
2024-01-10T00:53:52.210Z,101908.44
2024-01-10T00:56:19.930Z,101896.59
2024-01-10T00:58:47.336Z,101915.56
2024-01-10T01:01:15.181Z,101911.63
2024-01-10T01:03:42.636Z,101899.03
2024-01-10T01:06:10.584Z,101898.88
2024-01-10T01:08:38.730Z,101919.59
2024-01-10T01:11:06.524Z,101921.63
2024-01-10T01:13:33.949Z,101910.50
2024-01-10T01:16:01.722Z,101913.09
2024-01-10T01:18:29.102Z,101915.72
2024-01-10T01:20:56.752Z,101919.38
2024-01-10T01:23:32.394Z,101915.16
2024-01-10T01:26:06.464Z,101912.41
2024-01-10T01:28:33.834Z,101906.03
2024-01-10T01:31:01.703Z,101898.81
2024-01-10T01:33:29.264Z,101868.59
2024-01-10T01:35:57.064Z,101896.94
2024-01-10T01:38:24.524Z,101890.13
2024-01-10T01:40:52.219Z,101882.91
2024-01-10T01:43:24.557Z,101877.47
2024-01-10T01:45:54.929Z,101902.84
2024-01-10T01:48:25.033Z,101894.38
2024-01-10T01:50:59.600Z,101865.16
2024-01-10T01:53:30.149Z,101890.53
2024-01-10T01:56:00.353Z,101878.75
2024-01-10T01:58:27.820Z,101874.00
2024-01-10T02:00:55.671Z,101882.34
2024-01-10T02:03:23.227Z,101863.53
2024-01-10T02:05:51.402Z,101879.16
2024-01-10T02:08:18.803Z,101881.97
2024-01-10T02:10:46.652Z,101879.75
2024-01-10T02:13:14.140Z,101871.19
2024-01-10T02:15:42.111Z,101869.59
2024-01-10T02:18:11.914Z,101870.13
2024-01-10T02:20:40.056Z,101844.28
2024-01-10T02:23:07.670Z,101869.56
2024-01-10T02:25:35.999Z,101857.50
2024-01-10T02:28:03.508Z,101868.38
2024-01-10T02:30:31.203Z,101863.81
2024-01-10T02:32:58.775Z,101866.59
2024-01-10T02:35:28.051Z,101860.16
2024-01-10T02:37:55.943Z,101839.19
2024-01-10T02:40:23.623Z,101859.94
2024-01-10T02:42:52.246Z,101836.28
2024-01-10T02:45:19.992Z,101847.56
2024-01-10T02:47:47.576Z,101844.31
2024-01-10T02:50:15.470Z,101851.44
2024-01-10T02:52:42.859Z,101849.34
2024-01-10T02:55:10.477Z,101846.38
2024-01-10T02:57:37.932Z,101848.28
2024-01-10T03:00:06.984Z,101857.03
2024-01-10T03:02:34.588Z,101831.16
2024-01-10T03:05:02.631Z,101844.75
2024-01-10T03:07:30.267Z,101837.09
2024-01-10T03:09:58.142Z,101851.03
2024-01-10T03:12:25.462Z,101827.50
2024-01-10T03:14:53.217Z,101846.03
2024-01-10T03:17:20.609Z,101829.19
2024-01-10T03:19:48.668Z,101836.22
2024-01-10T03:22:16.127Z,101829.63
2024-01-10T03:24:43.861Z,101837.75
2024-01-10T03:27:11.318Z,101834.75
2024-01-10T03:29:39.320Z,101832.91
2024-01-10T03:32:07.859Z,101820.41
2024-01-10T03:34:35.730Z,101829.47
2024-01-10T03:37:03.039Z,101842.25
2024-01-10T03:39:31.776Z,101835.91
2024-01-10T03:41:59.213Z,101840.69
2024-01-10T03:44:28.523Z,101834.88
2024-01-10T03:46:56.226Z,101813.84
2024-01-10T03:49:23.996Z,101829.88
2024-01-10T03:51:51.525Z,101839.78
2024-01-10T03:54:19.169Z,101830.38
2024-01-10T03:56:46.526Z,101836.41
2024-01-10T03:59:14.254Z,101821.38
2024-01-10T04:01:41.838Z,101817.75
2024-01-10T04:04:09.474Z,101831.94
2024-01-10T04:06:36.922Z,101822.75
2024-01-10T04:09:04.565Z,101822.94
2024-01-10T04:11:32.064Z,101834.59
2024-01-10T04:13:59.789Z,101808.53
2024-01-10T04:16:28.824Z,101829.75
2024-01-10T04:18:56.836Z,101816.03
2024-01-10T04:21:24.420Z,101818.81
2024-01-10T04:23:53.190Z,101816.06
2024-01-10T04:26:20.572Z,101826.94
2024-01-10T04:28:48.438Z,101829.47
2024-01-10T04:31:15.917Z,101819.25
2024-01-10T04:33:43.674Z,101818.53
2024-01-10T04:36:11.005Z,101806.59
2024-01-10T04:38:38.843Z,101791.72
2024-01-10T04:41:06.251Z,101813.25
2024-01-10T04:43:34.082Z,101813.47
2024-01-10T04:46:01.455Z,101812.75
2024-01-10T04:48:29.153Z,101806.59
2024-01-10T04:50:56.749Z,101804.13
2024-01-10T04:53:24.940Z,101808.72
2024-01-10T04:55:52.452Z,101804.41
2024-01-10T04:58:20.179Z,101815.50
2024-01-10T05:00:47.886Z,101808.63
2024-01-10T05:03:17.084Z,101824.28
2024-01-10T05:05:44.815Z,101797.03
2024-01-10T05:08:12.747Z,101810.28
2024-01-10T05:10:40.142Z,101799.38
2024-01-10T05:13:08.310Z,101806.31
2024-01-10T05:15:35.662Z,101801.72
2024-01-10T05:18:04.316Z,101801.78
2024-01-10T05:20:33.156Z,101813.97
2024-01-10T05:23:02.972Z,101806.19
2024-01-10T05:25:30.995Z,101811.84
2024-01-10T05:27:58.654Z,101811.72
2024-01-10T05:30:28.822Z,101778.72
2024-01-10T05:32:57.645Z,101805.75
2024-01-10T05:35:27.098Z,101804.19
2024-01-10T05:37:55.774Z,101790.41
2024-01-10T05:40:23.209Z,101771.22
2024-01-10T05:42:50.906Z,101781.66
2024-01-10T05:45:19.506Z,101783.69
2024-01-10T05:47:49.312Z,101772.22
2024-01-10T05:50:16.909Z,101790.41
2024-01-10T05:52:46.709Z,101790.31
2024-01-10T05:55:15.103Z,101780.22
2024-01-10T05:57:42.709Z,101757.69
2024-01-10T06:00:11.098Z,101751.75
2024-01-10T06:02:40.168Z,101773.06
2024-01-10T06:05:12.158Z,101769.47
2024-01-10T06:07:42.496Z,101772.25
2024-01-10T06:10:11.076Z,101767.75
2024-01-10T06:12:39.400Z,101767.31
2024-01-10T06:15:07.908Z,101758.16
2024-01-10T06:17:35.839Z,101764.28
2024-01-10T06:20:05.002Z,101767.38
2024-01-10T06:22:32.940Z,101767.53
2024-01-10T06:25:00.724Z,101757.47
2024-01-10T06:27:29.186Z,101785.97
2024-01-10T06:29:56.643Z,101768.16
2024-01-10T06:32:24.326Z,101754.72
2024-01-10T06:34:52.095Z,101781.44
2024-01-10T06:37:20.237Z,101782.72
2024-01-10T06:39:47.745Z,101797.75
2024-01-10T06:42:15.404Z,101804.75
2024-01-10T06:44:42.852Z,101801.06
2024-01-10T06:47:11.268Z,101780.47
2024-01-10T06:49:40.414Z,101799.09
2024-01-10T06:52:09.250Z,101776.53
2024-01-10T06:54:36.736Z,101775.50
2024-01-10T06:57:04.590Z,101768.84
2024-01-10T06:59:31.996Z,101796.13
2024-01-10T07:02:01.970Z,101772.94
2024-01-10T07:04:29.384Z,101779.44
2024-01-10T07:06:57.070Z,101785.16
2024-01-10T07:09:24.502Z,101793.75
2024-01-10T07:11:52.253Z,101794.97
2024-01-10T07:14:19.689Z,101806.69
2024-01-10T07:16:48.877Z,101790.53
2024-01-10T07:19:16.637Z,101803.06
2024-01-10T07:21:44.791Z,101808.44
2024-01-10T07:24:13.313Z,101814.78
2024-01-10T07:26:41.992Z,101801.44
2024-01-10T07:29:10.093Z,101785.50
2024-01-10T07:31:38.266Z,101799.16
2024-01-10T07:34:08.732Z,101799.69
2024-01-10T07:36:43.968Z,101811.34
2024-01-10T07:39:11.464Z,101811.53
2024-01-10T07:41:39.340Z,101803.56
2024-01-10T07:44:07.790Z,101789.44
2024-01-10T07:46:35.788Z,101809.03
2024-01-10T07:49:03.237Z,101799.09
2024-01-10T07:51:31.294Z,101784.41
2024-01-10T07:54:00.526Z,101797.03
2024-01-10T07:56:28.612Z,101787.84
2024-01-10T07:58:56.700Z,101784.69
2024-01-10T08:01:24.632Z,101789.50
2024-01-10T08:03:52.207Z,101789.09
2024-01-10T08:06:26.792Z,101783.09
2024-01-10T08:08:57.429Z,101798.59
2024-01-10T08:11:26.082Z,101799.78
2024-01-10T08:13:53.514Z,101805.91
2024-01-10T08:16:21.300Z,101796.94
2024-01-10T08:18:48.752Z,101806.38
2024-01-10T08:21:16.561Z,101798.63
2024-01-10T08:23:43.874Z,101780.69
2024-01-10T08:26:11.565Z,101802.13
2024-01-10T08:28:38.965Z,101805.19
2024-01-10T08:31:06.936Z,101799.56
2024-01-10T08:33:34.423Z,101789.75
2024-01-10T08:36:02.113Z,101774.47
2024-01-10T08:38:29.667Z,101776.47
2024-01-10T08:40:57.467Z,101793.81
2024-01-10T08:43:25.050Z,101793.94
2024-01-10T08:45:52.796Z,101794.56
2024-01-10T08:48:20.357Z,101789.34
2024-01-10T08:50:48.187Z,101775.88
2024-01-10T08:53:15.626Z,101790.06
2024-01-10T08:55:43.833Z,101783.59
2024-01-10T08:58:11.252Z,101789.47
2024-01-10T09:00:39.092Z,101778.03
2024-01-10T09:03:06.524Z,101792.09
2024-01-10T09:05:34.418Z,101796.22
2024-01-10T09:08:01.970Z,101801.91
2024-01-10T09:10:30.156Z,101796.22
2024-01-10T09:13:00.013Z,101798.31
2024-01-10T09:15:27.845Z,101777.88
2024-01-10T09:17:55.496Z,101800.44
2024-01-10T09:20:23.560Z,101799.84
2024-01-10T09:22:51.905Z,101788.50
2024-01-10T09:25:19.680Z,101799.94
2024-01-10T09:27:48.252Z,101804.16
2024-01-10T09:30:18.169Z,101818.22
2024-01-10T09:32:47.407Z,101797.19
2024-01-10T09:35:15.466Z,101804.69
2024-01-10T09:37:43.002Z,101804.59
2024-01-10T09:40:11.708Z,101790.91
2024-01-10T09:42:39.202Z,101806.78
2024-01-10T09:45:07.661Z,101797.28
2024-01-10T09:47:37.632Z,101800.06
2024-01-10T09:50:06.493Z,101788.41
2024-01-10T09:52:42.777Z,101773.91
2024-01-10T09:55:12.628Z,101771.47
2024-01-10T09:57:41.580Z,101770.34
2024-01-10T10:00:12.404Z,101769.72
2024-01-10T10:02:43.623Z,101787.47
2024-01-10T10:05:17.384Z,101779.19
2024-01-10T10:07:54.622Z,101754.38
2024-01-10T10:10:22.871Z,101776.97
2024-01-10T10:12:55.164Z,101765.38
2024-01-10T10:15:25.057Z,101739.25
2024-01-10T10:17:55.198Z,101759.97
2024-01-10T10:20:31.116Z,101759.25
2024-01-10T10:23:03.132Z,101735.59
2024-01-10T10:25:36.056Z,101742.09
2024-01-10T10:28:04.624Z,101746.47
2024-01-10T10:30:34.782Z,101733.88
2024-01-10T10:33:04.381Z,101740.22
2024-01-10T10:35:39.353Z,101749.66
2024-01-10T10:38:10.823Z,101761.03
2024-01-10T10:40:38.860Z,101754.25
2024-01-10T10:43:06.410Z,101748.47
2024-01-10T10:45:35.123Z,101732.13
2024-01-10T10:48:03.563Z,101751.31
2024-01-10T10:50:36.686Z,101749.50
2024-01-10T10:53:05.572Z,101749.84
2024-01-10T10:55:36.139Z,101748.59
2024-01-10T10:58:11.453Z,101749.53
2024-01-10T11:00:41.774Z,101746.63
2024-01-10T11:03:12.722Z,101732.81
2024-01-10T11:05:43.281Z,101755.78
2024-01-10T11:08:15.752Z,101746.09
2024-01-10T11:10:45.935Z,101731.34
2024-01-10T11:13:41.092Z,101742.56
2024-01-10T11:16:21.955Z,101749.69
2024-01-10T11:19:01.669Z,101758.22
2024-01-10T11:22:07.158Z,101747.50
2024-01-10T11:24:35.212Z,101752.19
2024-01-10T11:27:12.079Z,101740.00
2024-01-10T11:29:46.257Z,101742.00
2024-01-10T11:32:18.534Z,101748.59
2024-01-10T11:34:55.272Z,101753.34
2024-01-10T11:37:23.951Z,101743.94
2024-01-10T11:39:52.952Z,101720.00
2024-01-10T11:42:24.582Z,101717.94
2024-01-10T11:44:55.322Z,101723.34
2024-01-10T11:47:23.192Z,101718.38
2024-01-10T11:49:58.383Z,101713.91
2024-01-10T11:52:35.595Z,101699.03
2024-01-10T11:55:04.361Z,101724.56
2024-01-10T11:57:33.706Z,101702.19
2024-01-10T12:00:02.090Z,101702.22
2024-01-10T12:02:33.910Z,101709.63
2024-01-10T12:05:03.253Z,101720.00
2024-01-10T12:07:31.145Z,101710.25
2024-01-10T12:09:59.103Z,101715.06
2024-01-10T12:12:26.942Z,101711.19
2024-01-10T12:14:54.519Z,101697.97
2024-01-10T12:17:22.245Z,101700.06
2024-01-10T12:19:50.150Z,101697.41
2024-01-10T12:22:19.185Z,101686.41
2024-01-10T12:24:51.362Z,101696.16
2024-01-10T12:27:22.478Z,101675.66
2024-01-10T12:29:54.644Z,101690.09
2024-01-10T12:32:25.693Z,101668.03
2024-01-10T12:35:05.353Z,101675.41
2024-01-10T12:37:33.537Z,101669.63
2024-01-10T12:40:01.224Z,101676.41
2024-01-10T12:42:29.370Z,101685.19
2024-01-10T12:44:56.760Z,101673.09
2024-01-10T12:47:26.331Z,101673.06
2024-01-10T12:49:55.529Z,101670.63
2024-01-10T12:52:24.293Z,101661.75
2024-01-10T12:54:54.187Z,101666.50
2024-01-10T12:57:22.727Z,101650.84
2024-01-10T12:59:50.144Z,101661.06
2024-01-10T13:02:19.246Z,101661.97
2024-01-10T13:04:46.932Z,101657.00
2024-01-10T13:07:15.248Z,101656.13
2024-01-10T13:09:42.730Z,101637.38
2024-01-10T13:12:10.625Z,101629.69
2024-01-10T13:14:38.215Z,101653.59
2024-01-10T13:17:06.034Z,101651.19
2024-01-10T13:19:33.613Z,101626.50
2024-01-10T13:22:02.628Z,101621.28
2024-01-10T13:24:31.036Z,101632.63
2024-01-10T13:26:58.668Z,101638.25
2024-01-10T13:29:26.152Z,101614.72
2024-01-10T13:31:53.895Z,101631.31
2024-01-10T13:34:21.371Z,101630.31
2024-01-10T13:36:49.160Z,101628.59
2024-01-10T13:39:16.734Z,101616.16
2024-01-10T13:41:44.722Z,101606.91
2024-01-10T13:44:12.134Z,101603.66
2024-01-10T13:46:40.166Z,101604.03
2024-01-10T13:49:07.507Z,101599.66
2024-01-10T13:51:36.058Z,101629.31
2024-01-10T13:54:04.398Z,101625.53
2024-01-10T13:56:33.355Z,101622.16
2024-01-10T13:59:01.079Z,101624.31
2024-01-10T14:01:29.260Z,101617.16
2024-01-10T14:03:56.654Z,101626.97
2024-01-10T14:06:24.731Z,101610.44
2024-01-10T14:08:52.219Z,101633.88
2024-01-10T14:11:20.975Z,101609.09
2024-01-10T14:13:48.518Z,101624.53
2024-01-10T14:16:16.269Z,101601.66
2024-01-10T14:18:43.522Z,101602.72
2024-01-10T14:21:11.471Z,101615.38
2024-01-10T14:23:38.960Z,101607.13
2024-01-10T14:26:06.919Z,101617.31
2024-01-10T14:28:34.377Z,101593.66
2024-01-10T14:31:09.935Z,101578.72
2024-01-10T14:33:46.781Z,101603.19
2024-01-10T14:36:14.656Z,101611.06
2024-01-10T14:38:42.810Z,101593.38
2024-01-10T14:41:10.666Z,101592.56
2024-01-10T14:43:41.434Z,101606.53
2024-01-10T14:46:09.195Z,101589.44
2024-01-10T14:48:37.349Z,101598.06
2024-01-10T14:51:05.856Z,101600.44
2024-01-10T14:53:33.329Z,101594.69
2024-01-10T14:56:01.246Z,101594.44
2024-01-10T14:58:28.766Z,101593.47
2024-01-10T15:00:57.683Z,101591.19
2024-01-10T15:03:27.595Z,101588.97
2024-01-10T15:05:56.443Z,101596.19
2024-01-10T15:08:24.338Z,101585.41
2024-01-10T15:10:52.294Z,101588.97
2024-01-10T15:13:20.590Z,101587.78
2024-01-10T15:15:48.270Z,101584.47
2024-01-10T15:18:16.312Z,101579.56
2024-01-10T15:20:44.396Z,101572.53
2024-01-10T15:23:12.051Z,101575.69
2024-01-10T15:25:41.143Z,101574.84
2024-01-10T15:28:09.866Z,101568.34
2024-01-10T15:30:44.938Z,101576.53
2024-01-10T15:33:15.775Z,101560.94
2024-01-10T15:35:43.753Z,101575.06
2024-01-10T15:38:11.238Z,101551.53
2024-01-10T15:40:38.943Z,101570.69
2024-01-10T15:43:06.339Z,101559.69
2024-01-10T15:45:35.088Z,101558.53
2024-01-10T15:48:03.663Z,101543.56
2024-01-10T15:50:31.446Z,101526.06
2024-01-10T15:52:58.811Z,101541.66
2024-01-10T15:55:28.488Z,101519.53
2024-01-10T15:57:55.885Z,101525.94
2024-01-10T16:00:23.539Z,101520.72
2024-01-10T16:02:51.002Z,101528.69
2024-01-10T16:05:18.745Z,101515.78
2024-01-10T16:07:46.231Z,101511.34
2024-01-10T16:10:14.032Z,101517.84
2024-01-10T16:12:41.342Z,101514.50
2024-01-10T16:15:09.562Z,101508.72
2024-01-10T16:17:37.085Z,101514.19
2024-01-10T16:20:07.091Z,101503.03
2024-01-10T16:22:37.741Z,101496.59
2024-01-10T16:25:06.047Z,101513.09
2024-01-10T16:27:33.442Z,101511.72
2024-01-10T16:30:02.284Z,101510.38
2024-01-10T16:32:31.386Z,101495.38
2024-01-10T16:34:59.511Z,101514.25
2024-01-10T16:37:27.075Z,101500.63
2024-01-10T16:39:54.919Z,101496.91
2024-01-10T16:42:22.896Z,101477.97
2024-01-10T16:44:50.761Z,101473.34
2024-01-10T16:47:18.213Z,101490.09
2024-01-10T16:49:45.940Z,101485.75
2024-01-10T16:52:13.598Z,101490.91
2024-01-10T16:54:41.322Z,101490.91
2024-01-10T16:57:08.825Z,101477.28
2024-01-10T16:59:36.408Z,101477.69
2024-01-10T17:02:04.016Z,101465.09
2024-01-10T17:04:31.962Z,101470.03
2024-01-10T17:06:59.625Z,101488.53
2024-01-10T17:09:27.863Z,101472.25
2024-01-10T17:11:55.379Z,101468.75
2024-01-10T17:14:23.487Z,101485.38
2024-01-10T17:16:51.122Z,101481.53
2024-01-10T17:19:18.933Z,101489.59
2024-01-10T17:21:46.267Z,101479.34
2024-01-10T17:24:14.090Z,101486.53
2024-01-10T17:26:41.836Z,101455.88
2024-01-10T17:29:13.240Z,101467.19
2024-01-10T17:31:46.657Z,101468.28
2024-01-10T17:34:14.967Z,101462.69
2024-01-10T17:36:42.495Z,101460.25
2024-01-10T17:39:10.767Z,101471.13
2024-01-10T17:41:41.977Z,101475.50
2024-01-10T17:44:10.445Z,101459.47
2024-01-10T17:46:38.245Z,101466.44
2024-01-10T17:49:06.394Z,101461.25
2024-01-10T17:51:34.178Z,101458.19
2024-01-10T17:54:02.447Z,101468.72
2024-01-10T17:56:30.279Z,101443.84
2024-01-10T17:58:58.469Z,101427.53
2024-01-10T18:01:25.924Z,101428.59
2024-01-10T18:04:03.291Z,101446.38
2024-01-10T18:06:38.998Z,101446.09
2024-01-10T18:09:08.204Z,101459.47
2024-01-10T18:11:36.056Z,101456.50
2024-01-10T18:14:04.120Z,101447.41
2024-01-10T18:16:31.502Z,101429.31
2024-01-10T18:18:59.556Z,101441.56
2024-01-10T18:21:27.039Z,101443.81
2024-01-10T18:23:58.274Z,101431.13
2024-01-10T18:26:26.121Z,101436.94
2024-01-10T18:28:54.035Z,101409.34
2024-01-10T18:31:21.471Z,101426.63
2024-01-10T18:33:49.382Z,101433.09
2024-01-10T18:36:17.248Z,101421.75
2024-01-10T18:38:45.066Z,101414.66
2024-01-10T18:41:12.556Z,101426.09
2024-01-10T18:43:42.128Z,101394.66
2024-01-10T18:46:12.487Z,101383.34
2024-01-10T18:48:40.636Z,101401.19
2024-01-10T18:51:08.050Z,101386.69
2024-01-10T18:53:35.845Z,101396.84
2024-01-10T18:56:03.494Z,101364.91
2024-01-10T18:58:31.249Z,101367.72
2024-01-10T19:00:58.733Z,101395.78
2024-01-10T19:03:26.579Z,101384.44
2024-01-10T19:05:54.150Z,101363.31
2024-01-10T19:08:22.211Z,101371.78
2024-01-10T19:10:49.828Z,101336.22
2024-01-10T19:13:18.536Z,101331.69
2024-01-10T19:15:46.253Z,101332.88
2024-01-10T19:18:15.644Z,101320.47
2024-01-10T19:20:43.136Z,101341.13
2024-01-10T19:23:10.885Z,101340.41
2024-01-10T19:25:38.333Z,101320.53
2024-01-10T19:28:07.187Z,101313.06
2024-01-10T19:30:36.241Z,101308.28
2024-01-10T19:33:05.894Z,101303.34
2024-01-10T19:35:34.120Z,101329.84
2024-01-10T19:38:02.482Z,101346.75
2024-01-10T19:40:29.925Z,101337.63
2024-01-10T19:42:57.691Z,101321.16
2024-01-10T19:45:27.576Z,101346.91
2024-01-10T19:47:55.358Z,101341.72
2024-01-10T19:50:23.700Z,101327.94
2024-01-10T19:52:53.920Z,101347.50
2024-01-10T19:55:21.507Z,101329.50
2024-01-10T19:57:49.228Z,101345.44
2024-01-10T20:00:17.327Z,101337.06
2024-01-10T20:02:47.346Z,101332.81
2024-01-10T20:05:14.876Z,101325.59
2024-01-10T20:07:43.082Z,101323.38
2024-01-10T20:10:11.018Z,101319.16
2024-01-10T20:12:38.817Z,101298.56
2024-01-10T20:15:06.674Z,101316.63
2024-01-10T20:17:34.775Z,101296.00
2024-01-10T20:20:02.503Z,101294.94
2024-01-10T20:22:30.211Z,101277.69
2024-01-10T20:24:57.787Z,101273.38
2024-01-10T20:27:25.528Z,101301.78
2024-01-10T20:29:52.952Z,101267.28
2024-01-10T20:32:20.639Z,101283.81
2024-01-10T20:34:48.350Z,101283.41
2024-01-10T20:37:17.442Z,101268.13
2024-01-10T20:39:45.308Z,101272.91
2024-01-10T20:42:13.828Z,101247.78
2024-01-10T20:44:42.382Z,101247.25
2024-01-10T20:47:10.146Z,101255.06
2024-01-10T20:49:38.135Z,101248.50
2024-01-10T20:52:06.115Z,101217.53
2024-01-10T20:54:39.438Z,101237.91
2024-01-10T20:57:08.638Z,101227.31
2024-01-10T20:59:36.255Z,101218.00
2024-01-10T21:02:04.306Z,101197.91
2024-01-10T21:04:31.628Z,101205.84
2024-01-10T21:07:08.685Z,101182.38
2024-01-10T21:09:44.441Z,101173.50
2024-01-10T21:12:12.810Z,101167.25
2024-01-10T21:14:45.008Z,101172.00
2024-01-10T21:17:13.902Z,101168.53
2024-01-10T21:19:41.774Z,101149.75
2024-01-10T21:22:09.434Z,101162.16
2024-01-10T21:24:38.466Z,101149.59
2024-01-10T21:27:06.650Z,101154.72
2024-01-10T21:29:34.114Z,101133.88
2024-01-10T21:32:01.958Z,101154.53
2024-01-10T21:34:29.575Z,101159.44
2024-01-10T21:36:57.688Z,101158.06
2024-01-10T21:39:25.937Z,101161.00
2024-01-10T21:41:53.688Z,101164.75
2024-01-10T21:44:23.504Z,101180.47
2024-01-10T21:46:51.288Z,101171.44
2024-01-10T21:49:18.688Z,101160.31
2024-01-10T21:51:46.481Z,101151.81
2024-01-10T21:54:14.933Z,101149.53
2024-01-10T21:56:42.867Z,101145.53
2024-01-10T21:59:10.289Z,101138.00
2024-01-10T22:01:38.071Z,101154.50
2024-01-10T22:04:05.557Z,101181.69
2024-01-10T22:06:34.024Z,101164.47
2024-01-10T22:09:01.886Z,101146.03
2024-01-10T22:11:29.642Z,101154.50
2024-01-10T22:13:57.344Z,101135.28
2024-01-10T22:16:25.171Z,101104.72
2024-01-10T22:18:52.651Z,101114.38
2024-01-10T22:21:20.540Z,101116.06
2024-01-10T22:23:47.945Z,101124.72
2024-01-10T22:26:15.792Z,101092.28
2024-01-10T22:28:43.277Z,101114.53
2024-01-10T22:31:11.143Z,101109.22
2024-01-10T22:33:38.767Z,101077.66
2024-01-10T22:36:07.165Z,101055.13
2024-01-10T22:38:34.662Z,101088.94
2024-01-10T22:41:02.274Z,101085.25
2024-01-10T22:43:29.729Z,101105.34
2024-01-10T22:45:58.182Z,101083.41
2024-01-10T22:48:26.945Z,101040.38
2024-01-10T22:50:55.373Z,101010.22
2024-01-10T22:53:23.398Z,101026.59
2024-01-10T22:55:51.166Z,101019.16
2024-01-10T22:58:20.439Z,100968.91
2024-01-10T23:00:49.631Z,100973.72
2024-01-10T23:03:17.020Z,100984.19
2024-01-10T23:05:44.941Z,100983.59
2024-01-10T23:08:12.644Z,100942.47
2024-01-10T23:10:41.921Z,100947.84
2024-01-10T23:13:09.310Z,100924.03
2024-01-10T23:15:36.906Z,100931.31
2024-01-10T23:18:04.674Z,100921.25
2024-01-10T23:20:32.312Z,100935.09
2024-01-10T23:22:59.926Z,100911.22
2024-01-10T23:25:27.614Z,100911.72
2024-01-10T23:27:54.955Z,100885.72
2024-01-10T23:30:22.657Z,100917.56
2024-01-10T23:32:50.094Z,100900.47
2024-01-10T23:35:18.874Z,100913.00
2024-01-10T23:37:47.732Z,100926.22
2024-01-10T23:40:16.891Z,100926.09
2024-01-10T23:42:44.333Z,100929.97
2024-01-10T23:45:11.968Z,100942.66
2024-01-10T23:47:39.343Z,100948.16
2024-01-10T23:50:07.846Z,100992.53
2024-01-10T23:52:35.723Z,100996.75
2024-01-10T23:55:03.552Z,101018.38
2024-01-10T23:57:31.341Z,101029.50
2024-01-10T23:59:59.117Z,101058.00
